Dan Fighter — OVUE2 — position and weather

sailwx.info

Track history (hours):
 
Tides and Currents Weather Stations Pressure Air Temp Water Temp Dewpoint Dewpoint Depression Visibility Wind Speed Wind Dir Waves Ship Positions

Dan Fighter

Last reported at 2016-Jun-29 09:34 UTC. Time now 2016-Jun-29 12:57 UTC.
Position N 54°37' E 012°49'.

Length 64 m; draft 3.1 m.

Type: Cargo ship. MMSI: 220386978.

Date/timePositionNaut miles runAvg speedWind from/ knotsBaromVisibWave heightAir tempDewpointWater temp
2016-Jun-29 09:34N 54°37' E 012°49'9 9.1
2016-Jun-29 08:32N 54°33' E 012°34'9 9.3
2016-Jun-29 07:32N 54°31' E 012°18'9 9.1
2016-Jun-29 06:33N 54°25' E 012°08'10 9.6
2016-Jun-29 05:34N 54°24' E 011°52'9 9.2
2016-Jun-29 04:33N 54°27' E 011°37'9 9.1
2016-Jun-29 03:34N 54°31' E 011°23'9 8.9
2016-Jun-29 02:33N 54°34' E 011°08'9 9.2
2016-Jun-29 01:34N 54°35' E 010°52'10 9.5
2016-Jun-29 00:33N 54°34' E 010°36'9 9.3
2016-Jun-28 23:33N 54°30' E 010°21'9 9.2
2016-Jun-28 22:34N 54°23' E 010°12'2 2.3
2016-Jun-28 21:34N 54°22' E 010°08'7 7.2
2016-Jun-28 20:34N 54°20' E 009°56'15 7.0
2016-Jun-28 18:29N 54°13' E 009°35'8 8.5
2016-Jun-28 17:33N 54°09' E 009°23'8 8.1
2016-Jun-28 16:33N 54°02' E 009°18'8 8.2
2016-Jun-28 15:34N 53°55' E 009°11'3 3.1
2016-Jun-28 14:34N 53°53' E 009°06'8 8.4
2016-Jun-28 13:33N 53°50' E 008°53'7 7.1
2016-Jun-28 12:32N 53°54' E 008°42'7 7.1
2016-Jun-28 11:33N 53°58' E 008°32'7 7.4
2016-Jun-28 10:33N 53°59' E 008°20'9 9.5
2016-Jun-28 09:33N 53°58' E 008°04'12 9.0
2016-Jun-28 08:16N 53°56' E 007°45'6 8.7
2016-Jun-28 07:34N 53°55' E 007°35'9 8.7
2016-Jun-28 06:33N 53°53' E 007°20'18 9.2
2016-Jun-28 04:33N 53°48' E 006°50'10 9.8
2016-Jun-28 03:33N 53°46' E 006°34'1010.3
2016-Jun-28 02:33N 53°43' E 006°17'1010.5
2016-Jun-28 01:33N 53°40' E 006°00'1110.6
2016-Jun-28 00:34N 53°36' E 005°43'1110.8
2016-Jun-27 23:34N 53°33' E 005°26'1110.9
2016-Jun-27 22:33N 53°30' E 005°08'2510.2
2016-Jun-27 20:05N 53°13' E 004°36'610.4
2016-Jun-27 19:33N 53°09' E 004°31'1010.1
2016-Jun-27 18:33N 52°60' E 004°23'9 9.4
2016-Jun-27 17:33N 52°51' E 004°16'11 9.0
2016-Jun-27 16:19N 52°42' E 004°06'7 8.6
2016-Jun-27 15:30N 52°36' E 004°01'8 8.4
2016-Jun-27 14:33N 52°29' E 003°55'8 8.3
2016-Jun-27 13:34N 52°21' E 003°52'8 8.2
2016-Jun-27 12:34N 52°12' E 003°54'8 8.3
2016-Jun-27 11:34N 52°04' E 003°54'9 9.0
2016-Jun-27 10:33N 51°57' E 003°45'1 1.1
2016-Jun-27 09:34N 51°56' E 003°44'0 0.0
2016-Jun-27 08:33N 51°56' E 003°44'0 0.0
2016-Jun-27 07:34N 51°56' E 003°44'0 0.0
2016-Jun-27 06:33N 51°56' E 003°44'0 0.0
2016-Jun-27 05:33N 51°56' E 003°44'0 0.1
2016-Jun-27 04:33N 51°56' E 003°44'60 8.6
2016-Jun-26 21:33N 51°30' E 002°16'10 9.7
2016-Jun-26 20:34N 51°22' E 002°09'1010.2
2016-Jun-26 19:34N 51°13' E 002°00'1110.9
2016-Jun-26 18:33N 51°06' E 001°47'1711.7
2016-Jun-26 17:05N 50°53' E 001°28'7110.7
2016-Jun-26 10:29N 50°18' W 000°08'1210.1
2016-Jun-26 09:19N 50°15' W 000°26'209 9.2
2016-Jun-25 10:31N 48°51' W 005°20'  
Track history (hours):
 
Tides and Currents Weather Stations Pressure Air Temp Water Temp Dewpoint Dewpoint Depression Visibility Wind Speed Wind Dir Waves Ship Positions

Dan Fighter

Last reported at 2016-Jun-29 09:34 UTC. Time now 2016-Jun-29 12:57 UTC.
Position N 54°37' E 012°49'.

Length 64 m; draft 3.1 m.

Type: Cargo ship. MMSI: 220386978.

Date/timePositionNaut miles runAvg speedWind from/ knotsBaromVisibWave heightAir tempDewpointWater temp
2016-Jun-29 09:34N 54°37' E 012°49'9 9.1
2016-Jun-29 08:32N 54°33' E 012°34'9 9.3
2016-Jun-29 07:32N 54°31' E 012°18'9 9.1
2016-Jun-29 06:33N 54°25' E 012°08'10 9.6
2016-Jun-29 05:34N 54°24' E 011°52'9 9.2
2016-Jun-29 04:33N 54°27' E 011°37'9 9.1
2016-Jun-29 03:34N 54°31' E 011°23'9 8.9
2016-Jun-29 02:33N 54°34' E 011°08'9 9.2
2016-Jun-29 01:34N 54°35' E 010°52'10 9.5
2016-Jun-29 00:33N 54°34' E 010°36'9 9.3
2016-Jun-28 23:33N 54°30' E 010°21'9 9.2
2016-Jun-28 22:34N 54°23' E 010°12'2 2.3
2016-Jun-28 21:34N 54°22' E 010°08'7 7.2
2016-Jun-28 20:34N 54°20' E 009°56'15 7.0
2016-Jun-28 18:29N 54°13' E 009°35'8 8.5
2016-Jun-28 17:33N 54°09' E 009°23'8 8.1
2016-Jun-28 16:33N 54°02' E 009°18'8 8.2
2016-Jun-28 15:34N 53°55' E 009°11'3 3.1
2016-Jun-28 14:34N 53°53' E 009°06'8 8.4
2016-Jun-28 13:33N 53°50' E 008°53'7 7.1
2016-Jun-28 12:32N 53°54' E 008°42'7 7.1
2016-Jun-28 11:33N 53°58' E 008°32'7 7.4
2016-Jun-28 10:33N 53°59' E 008°20'9 9.5
2016-Jun-28 09:33N 53°58' E 008°04'12 9.0
2016-Jun-28 08:16N 53°56' E 007°45'6 8.7
2016-Jun-28 07:34N 53°55' E 007°35'9 8.7
2016-Jun-28 06:33N 53°53' E 007°20'18 9.2
2016-Jun-28 04:33N 53°48' E 006°50'10 9.8
2016-Jun-28 03:33N 53°46' E 006°34'1010.3
2016-Jun-28 02:33N 53°43' E 006°17'1010.5
2016-Jun-28 01:33N 53°40' E 006°00'1110.6
2016-Jun-28 00:34N 53°36' E 005°43'1110.8
2016-Jun-27 23:34N 53°33' E 005°26'1110.9
2016-Jun-27 22:33N 53°30' E 005°08'2510.2
2016-Jun-27 20:05N 53°13' E 004°36'610.4
2016-Jun-27 19:33N 53°09' E 004°31'1010.1
2016-Jun-27 18:33N 52°60' E 004°23'9 9.4
2016-Jun-27 17:33N 52°51' E 004°16'11 9.0
2016-Jun-27 16:19N 52°42' E 004°06'7 8.6
2016-Jun-27 15:30N 52°36' E 004°01'8 8.4
2016-Jun-27 14:33N 52°29' E 003°55'8 8.3
2016-Jun-27 13:34N 52°21' E 003°52'8 8.2
2016-Jun-27 12:34N 52°12' E 003°54'8 8.3
2016-Jun-27 11:34N 52°04' E 003°54'9 9.0
2016-Jun-27 10:33N 51°57' E 003°45'1 1.1
2016-Jun-27 09:34N 51°56' E 003°44'0 0.0
2016-Jun-27 08:33N 51°56' E 003°44'0 0.0
2016-Jun-27 07:34N 51°56' E 003°44'0 0.0
2016-Jun-27 06:33N 51°56' E 003°44'0 0.0
2016-Jun-27 05:33N 51°56' E 003°44'0 0.1
2016-Jun-27 04:33N 51°56' E 003°44'60 8.6
2016-Jun-26 21:33N 51°30' E 002°16'10 9.7
2016-Jun-26 20:34N 51°22' E 002°09'1010.2
2016-Jun-26 19:34N 51°13' E 002°00'1110.9
2016-Jun-26 18:33N 51°06' E 001°47'1711.7
2016-Jun-26 17:05N 50°53' E 001°28'7110.7
2016-Jun-26 10:29N 50°18' W 000°08'1210.1
2016-Jun-26 09:19N 50°15' W 000°26'209 9.2
2016-Jun-25 10:31N 48°51' W 005°20'  

Dump ship's entire track history